sensor_id;sensor_type;location;lat;lon;timestamp;temperature;humidity
23715;DHT22;12036;50.858;4.472;2022-07-25T00:01:43;24.30;70.60
23715;DHT22;12036;50.858;4.472;2022-07-25T00:04:08;24.30;70.90
23715;DHT22;12036;50.858;4.472;2022-07-25T00:06:37;24.30;70.90
23715;DHT22;12036;50.858;4.472;2022-07-25T00:09:03;24.20;70.80
23715;DHT22;12036;50.858;4.472;2022-07-25T00:11:29;24.20;71.30
23715;DHT22;12036;50.858;4.472;2022-07-25T00:13:54;24.20;70.30
23715;DHT22;12036;50.858;4.472;2022-07-25T00:16:20;24.20;71.00
23715;DHT22;12036;50.858;4.472;2022-07-25T00:18:46;24.20;70.50
23715;DHT22;12036;50.858;4.472;2022-07-25T00:21:12;24.20;71.00
23715;DHT22;12036;50.858;4.472;2022-07-25T00:23:37;24.20;70.60
23715;DHT22;12036;50.858;4.472;2022-07-25T00:26:04;24.20;71.20
23715;DHT22;12036;50.858;4.472;2022-07-25T00:28:30;24.20;71.00
23715;DHT22;12036;50.858;4.472;2022-07-25T00:30:56;24.20;71.40
23715;DHT22;12036;50.858;4.472;2022-07-25T00:33:22;24.10;71.90
23715;DHT22;12036;50.858;4.472;2022-07-25T00:35:47;24.00;72.20
23715;DHT22;12036;50.858;4.472;2022-07-25T00:38:13;24.00;72.80
23715;DHT22;12036;50.858;4.472;2022-07-25T00:40:38;24.00;73.60
23715;DHT22;12036;50.858;4.472;2022-07-25T00:43:04;23.80;73.80
23715;DHT22;12036;50.858;4.472;2022-07-25T00:45:30;23.80;74.20
23715;DHT22;12036;50.858;4.472;2022-07-25T00:47:55;23.70;75.20
23715;DHT22;12036;50.858;4.472;2022-07-25T00:50:21;23.70;73.70
23715;DHT22;12036;50.858;4.472;2022-07-25T00:52:47;23.70;72.90
23715;DHT22;12036;50.858;4.472;2022-07-25T00:55:14;23.80;72.80
23715;DHT22;12036;50.858;4.472;2022-07-25T00:57:40;23.80;72.30
23715;DHT22;12036;50.858;4.472;2022-07-25T01:00:09;23.80;72.00
23715;DHT22;12036;50.858;4.472;2022-07-25T01:02:35;23.80;71.90
23715;DHT22;12036;50.858;4.472;2022-07-25T01:05:01;23.90;71.70
23715;DHT22;12036;50.858;4.472;2022-07-25T01:07:27;23.90;71.60
23715;DHT22;12036;50.858;4.472;2022-07-25T01:09:54;23.90;71.70
23715;DHT22;12036;50.858;4.472;2022-07-25T01:12:20;23.90;71.90
23715;DHT22;12036;50.858;4.472;2022-07-25T01:14:45;23.90;72.00
23715;DHT22;12036;50.858;4.472;2022-07-25T01:17:11;23.90;71.60
23715;DHT22;12036;50.858;4.472;2022-07-25T01:19:37;23.90;71.80
23715;DHT22;12036;50.858;4.472;2022-07-25T01:22:03;23.90;71.60
23715;DHT22;12036;50.858;4.472;2022-07-25T01:24:29;23.90;72.00
23715;DHT22;12036;50.858;4.472;2022-07-25T01:26:54;23.80;71.80
23715;DHT22;12036;50.858;4.472;2022-07-25T01:29:20;23.80;72.20
23715;DHT22;12036;50.858;4.472;2022-07-25T01:31:46;23.80;72.00
23715;DHT22;12036;50.858;4.472;2022-07-25T01:34:12;23.80;72.30
23715;DHT22;12036;50.858;4.472;2022-07-25T01:36:38;23.80;72.40
23715;DHT22;12036;50.858;4.472;2022-07-25T01:39:03;23.80;71.90
23715;DHT22;12036;50.858;4.472;2022-07-25T01:41:29;23.80;72.20
23715;DHT22;12036;50.858;4.472;2022-07-25T01:43:55;23.80;72.20
23715;DHT22;12036;50.858;4.472;2022-07-25T01:46:20;23.80;72.10
23715;DHT22;12036;50.858;4.472;2022-07-25T01:48:46;23.80;72.00
23715;DHT22;12036;50.858;4.472;2022-07-25T01:51:12;23.80;72.20
23715;DHT22;12036;50.858;4.472;2022-07-25T01:53:38;23.80;72.00
23715;DHT22;12036;50.858;4.472;2022-07-25T01:56:05;23.70;71.80
23715;DHT22;12036;50.858;4.472;2022-07-25T01:58:31;23.80;71.70
23715;DHT22;12036;50.858;4.472;2022-07-25T02:00:56;23.80;71.80
23715;DHT22;12036;50.858;4.472;2022-07-25T02:03:22;23.80;72.10
23715;DHT22;12036;50.858;4.472;2022-07-25T02:05:59;23.80;72.20
23715;DHT22;12036;50.858;4.472;2022-07-25T02:08:25;23.80;72.30
23715;DHT22;12036;50.858;4.472;2022-07-25T02:10:51;23.80;72.40
23715;DHT22;12036;50.858;4.472;2022-07-25T02:13:17;23.70;72.40
23715;DHT22;12036;50.858;4.472;2022-07-25T02:15:43;23.70;72.80
23715;DHT22;12036;50.858;4.472;2022-07-25T02:18:08;23.60;73.40
23715;DHT22;12036;50.858;4.472;2022-07-25T02:20:34;23.50;73.60
23715;DHT22;12036;50.858;4.472;2022-07-25T02:22:59;23.50;73.70
23715;DHT22;12036;50.858;4.472;2022-07-25T02:25:25;23.40;73.80
23715;DHT22;12036;50.858;4.472;2022-07-25T02:27:51;23.40;74.30
23715;DHT22;12036;50.858;4.472;2022-07-25T02:30:16;23.40;74.60
23715;DHT22;12036;50.858;4.472;2022-07-25T02:32:42;23.30;74.90
23715;DHT22;12036;50.858;4.472;2022-07-25T02:35:08;23.20;75.00
23715;DHT22;12036;50.858;4.472;2022-07-25T02:37:34;23.30;75.00
23715;DHT22;12036;50.858;4.472;2022-07-25T02:40:00;23.30;75.10
23715;DHT22;12036;50.858;4.472;2022-07-25T02:42:25;23.30;75.30
23715;DHT22;12036;50.858;4.472;2022-07-25T02:44:51;23.20;75.40
23715;DHT22;12036;50.858;4.472;2022-07-25T02:47:17;23.20;75.60
23715;DHT22;12036;50.858;4.472;2022-07-25T02:49:43;23.10;75.80
23715;DHT22;12036;50.858;4.472;2022-07-25T02:52:08;23.10;76.00
23715;DHT22;12036;50.858;4.472;2022-07-25T02:54:34;23.10;76.60
23715;DHT22;12036;50.858;4.472;2022-07-25T02:56:59;23.00;77.00
23715;DHT22;12036;50.858;4.472;2022-07-25T02:59:25;23.00;77.30
23715;DHT22;12036;50.858;4.472;2022-07-25T03:01:50;22.90;77.60
23715;DHT22;12036;50.858;4.472;2022-07-25T03:04:16;22.80;77.50
23715;DHT22;12036;50.858;4.472;2022-07-25T03:06:42;22.80;77.90
23715;DHT22;12036;50.858;4.472;2022-07-25T03:09:08;22.90;78.20
23715;DHT22;12036;50.858;4.472;2022-07-25T03:11:33;22.80;78.40
23715;DHT22;12036;50.858;4.472;2022-07-25T03:13:59;22.80;78.30
23715;DHT22;12036;50.858;4.472;2022-07-25T03:16:25;22.80;78.70
23715;DHT22;12036;50.858;4.472;2022-07-25T03:18:51;22.80;78.80
23715;DHT22;12036;50.858;4.472;2022-07-25T03:21:16;22.80;78.90
23715;DHT22;12036;50.858;4.472;2022-07-25T03:23:42;22.80;79.10
23715;DHT22;12036;50.858;4.472;2022-07-25T03:26:08;22.80;79.10
23715;DHT22;12036;50.858;4.472;2022-07-25T03:28:34;22.80;79.20
23715;DHT22;12036;50.858;4.472;2022-07-25T03:31:00;22.80;79.30
23715;DHT22;12036;50.858;4.472;2022-07-25T03:33:25;22.70;79.30
23715;DHT22;12036;50.858;4.472;2022-07-25T03:35:51;22.70;79.60
23715;DHT22;12036;50.858;4.472;2022-07-25T03:38:17;22.80;79.80
23715;DHT22;12036;50.858;4.472;2022-07-25T03:40:43;22.70;79.60
23715;DHT22;12036;50.858;4.472;2022-07-25T03:43:08;22.80;79.80
23715;DHT22;12036;50.858;4.472;2022-07-25T03:45:34;22.80;80.10
23715;DHT22;12036;50.858;4.472;2022-07-25T03:48:00;22.80;80.40
23715;DHT22;12036;50.858;4.472;2022-07-25T03:50:26;22.80;80.50
23715;DHT22;12036;50.858;4.472;2022-07-25T03:52:52;22.80;80.40
23715;DHT22;12036;50.858;4.472;2022-07-25T03:55:17;22.70;80.40
23715;DHT22;12036;50.858;4.472;2022-07-25T03:57:43;22.70;80.70
23715;DHT22;12036;50.858;4.472;2022-07-25T04:00:09;22.70;81.00
23715;DHT22;12036;50.858;4.472;2022-07-25T04:02:36;22.70;81.20
23715;DHT22;12036;50.858;4.472;2022-07-25T04:05:04;22.70;81.20
23715;DHT22;12036;50.858;4.472;2022-07-25T04:07:29;22.70;81.30
23715;DHT22;12036;50.858;4.472;2022-07-25T04:09:55;22.80;81.00
23715;DHT22;12036;50.858;4.472;2022-07-25T04:12:21;22.80;81.20
23715;DHT22;12036;50.858;4.472;2022-07-25T04:14:46;22.90;81.10
23715;DHT22;12036;50.858;4.472;2022-07-25T04:17:12;22.90;80.90
23715;DHT22;12036;50.858;4.472;2022-07-25T04:19:38;23.00;80.90
23715;DHT22;12036;50.858;4.472;2022-07-25T04:22:04;23.00;80.60
23715;DHT22;12036;50.858;4.472;2022-07-25T04:24:30;23.00;79.70
23715;DHT22;12036;50.858;4.472;2022-07-25T04:26:56;23.00;79.00
23715;DHT22;12036;50.858;4.472;2022-07-25T04:29:21;23.00;78.50
23715;DHT22;12036;50.858;4.472;2022-07-25T04:31:47;23.00;76.60
23715;DHT22;12036;50.858;4.472;2022-07-25T04:34:12;23.00;76.10
23715;DHT22;12036;50.858;4.472;2022-07-25T04:36:38;23.00;75.50
23715;DHT22;12036;50.858;4.472;2022-07-25T04:39:04;23.00;74.90
23715;DHT22;12036;50.858;4.472;2022-07-25T04:41:29;23.00;74.30
23715;DHT22;12036;50.858;4.472;2022-07-25T04:43:55;23.00;73.90
23715;DHT22;12036;50.858;4.472;2022-07-25T04:46:21;23.00;73.00
23715;DHT22;12036;50.858;4.472;2022-07-25T04:48:48;23.00;72.80
23715;DHT22;12036;50.858;4.472;2022-07-25T04:51:15;23.00;71.90
23715;DHT22;12036;50.858;4.472;2022-07-25T04:53:41;23.00;70.90
23715;DHT22;12036;50.858;4.472;2022-07-25T04:56:07;23.00;69.70
23715;DHT22;12036;50.858;4.472;2022-07-25T04:58:32;23.00;69.60
23715;DHT22;12036;50.858;4.472;2022-07-25T05:00:59;23.00;69.60
23715;DHT22;12036;50.858;4.472;2022-07-25T05:03:25;22.90;69.00
23715;DHT22;12036;50.858;4.472;2022-07-25T05:05:50;23.00;68.30
23715;DHT22;12036;50.858;4.472;2022-07-25T05:08:16;22.90;68.50
23715;DHT22;12036;50.858;4.472;2022-07-25T05:10:42;23.00;68.50
23715;DHT22;12036;50.858;4.472;2022-07-25T05:13:08;22.90;69.10
23715;DHT22;12036;50.858;4.472;2022-07-25T05:15:34;22.80;69.70
23715;DHT22;12036;50.858;4.472;2022-07-25T05:18:00;22.80;70.70
23715;DHT22;12036;50.858;4.472;2022-07-25T05:20:26;22.70;71.80
23715;DHT22;12036;50.858;4.472;2022-07-25T05:22:52;22.60;73.00
23715;DHT22;12036;50.858;4.472;2022-07-25T05:25:18;22.50;74.70
23715;DHT22;12036;50.858;4.472;2022-07-25T05:27:44;22.50;75.40
23715;DHT22;12036;50.858;4.472;2022-07-25T05:30:12;22.50;76.00
23715;DHT22;12036;50.858;4.472;2022-07-25T05:32:38;22.50;76.60
23715;DHT22;12036;50.858;4.472;2022-07-25T05:35:06;22.40;77.10
23715;DHT22;12036;50.858;4.472;2022-07-25T05:37:33;22.40;77.20
23715;DHT22;12036;50.858;4.472;2022-07-25T05:39:58;22.40;77.20
23715;DHT22;12036;50.858;4.472;2022-07-25T05:42:24;22.40;76.90
23715;DHT22;12036;50.858;4.472;2022-07-25T05:44:50;22.50;77.10
23715;DHT22;12036;50.858;4.472;2022-07-25T05:47:16;22.40;77.00
23715;DHT22;12036;50.858;4.472;2022-07-25T05:49:42;22.50;77.60
23715;DHT22;12036;50.858;4.472;2022-07-25T05:52:07;22.50;77.80
23715;DHT22;12036;50.858;4.472;2022-07-25T05:54:33;22.50;77.50
23715;DHT22;12036;50.858;4.472;2022-07-25T05:56:59;22.50;77.70
23715;DHT22;12036;50.858;4.472;2022-07-25T05:59:26;22.50;78.00
23715;DHT22;12036;50.858;4.472;2022-07-25T06:01:51;22.50;78.00
23715;DHT22;12036;50.858;4.472;2022-07-25T06:04:17;22.50;78.00
23715;DHT22;12036;50.858;4.472;2022-07-25T06:06:42;22.50;78.30
23715;DHT22;12036;50.858;4.472;2022-07-25T06:09:15;22.50;78.60
23715;DHT22;12036;50.858;4.472;2022-07-25T06:11:41;22.40;78.80
23715;DHT22;12036;50.858;4.472;2022-07-25T06:14:07;22.50;79.00
23715;DHT22;12036;50.858;4.472;2022-07-25T06:16:35;22.50;79.20
23715;DHT22;12036;50.858;4.472;2022-07-25T06:19:01;22.40;80.00
23715;DHT22;12036;50.858;4.472;2022-07-25T06:21:26;22.40;80.70
23715;DHT22;12036;50.858;4.472;2022-07-25T06:23:52;22.40;81.10
23715;DHT22;12036;50.858;4.472;2022-07-25T06:26:18;22.40;81.60
23715;DHT22;12036;50.858;4.472;2022-07-25T06:28:43;22.50;81.70
23715;DHT22;12036;50.858;4.472;2022-07-25T06:31:09;22.60;81.50
23715;DHT22;12036;50.858;4.472;2022-07-25T06:33:34;22.70;81.80
23715;DHT22;12036;50.858;4.472;2022-07-25T06:36:00;22.70;81.30
23715;DHT22;12036;50.858;4.472;2022-07-25T06:38:26;22.80;80.90
23715;DHT22;12036;50.858;4.472;2022-07-25T06:40:51;22.60;81.80
23715;DHT22;12036;50.858;4.472;2022-07-25T06:43:17;22.50;82.00
23715;DHT22;12036;50.858;4.472;2022-07-25T06:45:42;22.60;82.10
23715;DHT22;12036;50.858;4.472;2022-07-25T06:48:13;22.60;81.70
23715;DHT22;12036;50.858;4.472;2022-07-25T06:50:38;22.70;81.60
23715;DHT22;12036;50.858;4.472;2022-07-25T06:53:04;22.90;81.40
23715;DHT22;12036;50.858;4.472;2022-07-25T06:55:30;23.00;81.60
23715;DHT22;12036;50.858;4.472;2022-07-25T06:57:55;23.00;81.50
23715;DHT22;12036;50.858;4.472;2022-07-25T07:00:21;23.00;81.40
23715;DHT22;12036;50.858;4.472;2022-07-25T07:05:13;23.20;81.60
23715;DHT22;12036;50.858;4.472;2022-07-25T07:07:39;23.50;81.10
23715;DHT22;12036;50.858;4.472;2022-07-25T07:10:05;23.90;79.80
23715;DHT22;12036;50.858;4.472;2022-07-25T07:12:31;24.50;78.10
23715;DHT22;12036;50.858;4.472;2022-07-25T07:14:56;24.70;77.20
23715;DHT22;12036;50.858;4.472;2022-07-25T07:17:22;24.80;77.00
23715;DHT22;12036;50.858;4.472;2022-07-25T07:19:47;24.70;77.30
23715;DHT22;12036;50.858;4.472;2022-07-25T07:22:13;24.50;78.00
23715;DHT22;12036;50.858;4.472;2022-07-25T07:24:39;24.40;78.40
23715;DHT22;12036;50.858;4.472;2022-07-25T07:27:04;24.30;79.40
23715;DHT22;12036;50.858;4.472;2022-07-25T07:29:30;24.30;79.30
23715;DHT22;12036;50.858;4.472;2022-07-25T07:31:56;24.10;80.00
23715;DHT22;12036;50.858;4.472;2022-07-25T07:34:21;24.20;80.20
23715;DHT22;12036;50.858;4.472;2022-07-25T07:36:47;24.10;79.80
23715;DHT22;12036;50.858;4.472;2022-07-25T07:39:12;24.00;80.90
23715;DHT22;12036;50.858;4.472;2022-07-25T07:41:38;24.00;81.50
23715;DHT22;12036;50.858;4.472;2022-07-25T07:44:04;24.00;81.00
23715;DHT22;12036;50.858;4.472;2022-07-25T07:46:30;24.20;81.10
23715;DHT22;12036;50.858;4.472;2022-07-25T07:48:56;24.30;80.20
23715;DHT22;12036;50.858;4.472;2022-07-25T07:51:21;24.40;79.40
23715;DHT22;12036;50.858;4.472;2022-07-25T07:53:47;24.50;79.50
23715;DHT22;12036;50.858;4.472;2022-07-25T07:56:31;24.70;79.60
23715;DHT22;12036;50.858;4.472;2022-07-25T07:58:56;24.80;79.20
23715;DHT22;12036;50.858;4.472;2022-07-25T08:01:22;24.70;78.50
23715;DHT22;12036;50.858;4.472;2022-07-25T08:03:49;24.70;78.60
23715;DHT22;12036;50.858;4.472;2022-07-25T08:06:15;24.50;78.50
23715;DHT22;12036;50.858;4.472;2022-07-25T08:08:40;24.40;78.90
23715;DHT22;12036;50.858;4.472;2022-07-25T08:11:06;24.30;79.60
23715;DHT22;12036;50.858;4.472;2022-07-25T08:13:33;24.10;79.50
23715;DHT22;12036;50.858;4.472;2022-07-25T08:16:00;24.20;79.50
23715;DHT22;12036;50.858;4.472;2022-07-25T08:18:28;24.30;79.60
23715;DHT22;12036;50.858;4.472;2022-07-25T08:20:54;24.20;79.90
23715;DHT22;12036;50.858;4.472;2022-07-25T08:23:20;24.20;79.80
23715;DHT22;12036;50.858;4.472;2022-07-25T08:25:47;24.20;79.80
23715;DHT22;12036;50.858;4.472;2022-07-25T08:28:13;24.20;79.50
23715;DHT22;12036;50.858;4.472;2022-07-25T08:30:40;24.30;79.80
23715;DHT22;12036;50.858;4.472;2022-07-25T08:33:09;24.20;80.00
23715;DHT22;12036;50.858;4.472;2022-07-25T08:35:35;24.20;80.40
23715;DHT22;12036;50.858;4.472;2022-07-25T08:38:02;24.20;80.90
23715;DHT22;12036;50.858;4.472;2022-07-25T08:40:28;24.30;80.30
23715;DHT22;12036;50.858;4.472;2022-07-25T08:42:54;24.30;80.60
23715;DHT22;12036;50.858;4.472;2022-07-25T08:45:21;24.30;80.90
23715;DHT22;12036;50.858;4.472;2022-07-25T08:47:49;24.50;80.00
23715;DHT22;12036;50.858;4.472;2022-07-25T08:50:17;24.70;79.70
23715;DHT22;12036;50.858;4.472;2022-07-25T08:52:45;24.80;80.00
23715;DHT22;12036;50.858;4.472;2022-07-25T08:55:13;25.00;80.30
23715;DHT22;12036;50.858;4.472;2022-07-25T08:57:40;25.40;78.50
23715;DHT22;12036;50.858;4.472;2022-07-25T09:00:09;25.50;78.40
23715;DHT22;12036;50.858;4.472;2022-07-25T09:02:38;25.60;77.60
23715;DHT22;12036;50.858;4.472;2022-07-25T09:05:05;25.60;77.10
23715;DHT22;12036;50.858;4.472;2022-07-25T09:07:36;25.80;77.80
23715;DHT22;12036;50.858;4.472;2022-07-25T09:10:12;26.10;76.60
23715;DHT22;12036;50.858;4.472;2022-07-25T09:12:38;26.30;75.90
23715;DHT22;12036;50.858;4.472;2022-07-25T09:15:05;26.20;75.60
23715;DHT22;12036;50.858;4.472;2022-07-25T09:17:31;26.10;75.90
23715;DHT22;12036;50.858;4.472;2022-07-25T09:19:56;26.10;76.20
23715;DHT22;12036;50.858;4.472;2022-07-25T09:22:22;26.20;76.40
23715;DHT22;12036;50.858;4.472;2022-07-25T09:24:48;26.20;75.60
23715;DHT22;12036;50.858;4.472;2022-07-25T09:27:14;26.00;76.20
23715;DHT22;12036;50.858;4.472;2022-07-25T09:29:42;25.90;76.50
23715;DHT22;12036;50.858;4.472;2022-07-25T09:32:18;26.00;75.70
23715;DHT22;12036;50.858;4.472;2022-07-25T09:34:47;26.10;76.40
23715;DHT22;12036;50.858;4.472;2022-07-25T09:37:17;26.20;76.30
23715;DHT22;12036;50.858;4.472;2022-07-25T09:39:50;26.30;76.20
23715;DHT22;12036;50.858;4.472;2022-07-25T09:42:28;26.60;74.40
23715;DHT22;12036;50.858;4.472;2022-07-25T09:47:33;26.70;75.20
23715;DHT22;12036;50.858;4.472;2022-07-25T09:49:59;27.40;73.50
23715;DHT22;12036;50.858;4.472;2022-07-25T09:52:25;28.00;71.80
23715;DHT22;12036;50.858;4.472;2022-07-25T09:54:51;28.60;69.90
23715;DHT22;12036;50.858;4.472;2022-07-25T09:57:17;28.90;68.10
23715;DHT22;12036;50.858;4.472;2022-07-25T09:59:42;28.50;67.50
23715;DHT22;12036;50.858;4.472;2022-07-25T10:02:16;28.30;67.60
23715;DHT22;12036;50.858;4.472;2022-07-25T10:04:45;28.80;67.10
23715;DHT22;12036;50.858;4.472;2022-07-25T10:07:13;29.40;65.40
23715;DHT22;12036;50.858;4.472;2022-07-25T10:09:53;29.60;63.10
23715;DHT22;12036;50.858;4.472;2022-07-25T10:12:21;29.10;63.10
23715;DHT22;12036;50.858;4.472;2022-07-25T10:15:10;28.60;64.40
23715;DHT22;12036;50.858;4.472;2022-07-25T10:17:39;28.40;64.50
23715;DHT22;12036;50.858;4.472;2022-07-25T10:20:09;28.80;64.20
23715;DHT22;12036;50.858;4.472;2022-07-25T10:25:11;29.00;64.10
23715;DHT22;12036;50.858;4.472;2022-07-25T10:27:45;28.70;63.60
23715;DHT22;12036;50.858;4.472;2022-07-25T10:30:24;28.30;63.70
23715;DHT22;12036;50.858;4.472;2022-07-25T10:33:01;27.90;64.60
23715;DHT22;12036;50.858;4.472;2022-07-25T10:35:28;27.70;65.00
23715;DHT22;12036;50.858;4.472;2022-07-25T10:37:56;27.20;66.20
23715;DHT22;12036;50.858;4.472;2022-07-25T10:40:47;27.10;66.80
23715;DHT22;12036;50.858;4.472;2022-07-25T10:43:20;27.10;67.50
23715;DHT22;12036;50.858;4.472;2022-07-25T10:46:13;27.00;68.30
23715;DHT22;12036;50.858;4.472;2022-07-25T10:48:40;26.80;68.30
23715;DHT22;12036;50.858;4.472;2022-07-25T10:51:11;26.80;68.80
23715;DHT22;12036;50.858;4.472;2022-07-25T10:53:45;26.80;68.40
23715;DHT22;12036;50.858;4.472;2022-07-25T10:59:00;26.40;68.40
23715;DHT22;12036;50.858;4.472;2022-07-25T11:01:31;26.20;69.50
23715;DHT22;12036;50.858;4.472;2022-07-25T11:03:59;26.10;69.70
23715;DHT22;12036;50.858;4.472;2022-07-25T11:06:32;25.70;70.20
23715;DHT22;12036;50.858;4.472;2022-07-25T11:08:58;25.60;70.70
23715;DHT22;12036;50.858;4.472;2022-07-25T11:11:36;25.50;70.40
23715;DHT22;12036;50.858;4.472;2022-07-25T11:14:03;25.40;71.30
23715;DHT22;12036;50.858;4.472;2022-07-25T11:16:29;25.40;71.70
23715;DHT22;12036;50.858;4.472;2022-07-25T11:18:55;25.30;71.80
23715;DHT22;12036;50.858;4.472;2022-07-25T11:21:20;25.20;72.00
23715;DHT22;12036;50.858;4.472;2022-07-25T11:23:50;25.10;71.80
23715;DHT22;12036;50.858;4.472;2022-07-25T11:26:16;24.90;71.60
23715;DHT22;12036;50.858;4.472;2022-07-25T11:28:44;24.60;72.10
23715;DHT22;12036;50.858;4.472;2022-07-25T11:31:12;24.50;72.50
23715;DHT22;12036;50.858;4.472;2022-07-25T11:33:40;24.20;72.70
23715;DHT22;12036;50.858;4.472;2022-07-25T11:36:06;24.00;73.00
23715;DHT22;12036;50.858;4.472;2022-07-25T11:38:33;24.00;73.50
23715;DHT22;12036;50.858;4.472;2022-07-25T11:40:59;23.80;73.80
23715;DHT22;12036;50.858;4.472;2022-07-25T11:43:25;23.80;74.20
23715;DHT22;12036;50.858;4.472;2022-07-25T11:48:32;23.70;74.90
23715;DHT22;12036;50.858;4.472;2022-07-25T11:51:08;23.50;74.20
23715;DHT22;12036;50.858;4.472;2022-07-25T11:53:49;23.60;73.90
23715;DHT22;12036;50.858;4.472;2022-07-25T11:56:22;23.60;74.40
23715;DHT22;12036;50.858;4.472;2022-07-25T11:58:59;23.50;74.90
23715;DHT22;12036;50.858;4.472;2022-07-25T12:01:28;23.60;75.40
23715;DHT22;12036;50.858;4.472;2022-07-25T12:04:16;23.50;75.10
23715;DHT22;12036;50.858;4.472;2022-07-25T12:06:47;23.60;75.10
23715;DHT22;12036;50.858;4.472;2022-07-25T12:09:16;23.60;75.30
23715;DHT22;12036;50.858;4.472;2022-07-25T12:11:42;23.80;75.70
23715;DHT22;12036;50.858;4.472;2022-07-25T12:14:08;24.10;75.00
23715;DHT22;12036;50.858;4.472;2022-07-25T12:16:34;24.30;73.70
23715;DHT22;12036;50.858;4.472;2022-07-25T12:19:00;24.70;73.30
23715;DHT22;12036;50.858;4.472;2022-07-25T12:21:26;25.00;71.80
23715;DHT22;12036;50.858;4.472;2022-07-25T12:23:52;25.20;71.40
23715;DHT22;12036;50.858;4.472;2022-07-25T12:26:19;25.60;70.70
23715;DHT22;12036;50.858;4.472;2022-07-25T12:28:44;25.90;70.40
23715;DHT22;12036;50.858;4.472;2022-07-25T12:31:10;26.30;69.30
23715;DHT22;12036;50.858;4.472;2022-07-25T12:33:36;26.30;68.20
23715;DHT22;12036;50.858;4.472;2022-07-25T12:36:02;26.10;68.20
23715;DHT22;12036;50.858;4.472;2022-07-25T12:38:28;25.80;68.10
23715;DHT22;12036;50.858;4.472;2022-07-25T12:40:54;25.50;69.50
23715;DHT22;12036;50.858;4.472;2022-07-25T12:43:21;25.30;70.20
23715;DHT22;12036;50.858;4.472;2022-07-25T12:45:46;25.10;70.90
23715;DHT22;12036;50.858;4.472;2022-07-25T12:48:13;25.00;71.10
23715;DHT22;12036;50.858;4.472;2022-07-25T12:50:42;24.90;70.90
23715;DHT22;12036;50.858;4.472;2022-07-25T12:53:09;24.90;71.30
23715;DHT22;12036;50.858;4.472;2022-07-25T12:55:35;24.90;72.00
23715;DHT22;12036;50.858;4.472;2022-07-25T12:58:00;25.10;72.40
23715;DHT22;12036;50.858;4.472;2022-07-25T13:00:26;25.30;71.90
23715;DHT22;12036;50.858;4.472;2022-07-25T13:02:52;25.50;71.60
23715;DHT22;12036;50.858;4.472;2022-07-25T13:05:22;25.60;71.40
23715;DHT22;12036;50.858;4.472;2022-07-25T13:07:49;25.80;70.50
23715;DHT22;12036;50.858;4.472;2022-07-25T13:10:15;26.00;69.60
23715;DHT22;12036;50.858;4.472;2022-07-25T13:12:41;26.00;69.40
23715;DHT22;12036;50.858;4.472;2022-07-25T13:15:07;25.80;69.30
23715;DHT22;12036;50.858;4.472;2022-07-25T13:17:33;25.40;68.40
23715;DHT22;12036;50.858;4.472;2022-07-25T13:19:59;25.20;68.10
23715;DHT22;12036;50.858;4.472;2022-07-25T13:22:25;25.10;69.60
23715;DHT22;12036;50.858;4.472;2022-07-25T13:24:52;25.40;69.30
23715;DHT22;12036;50.858;4.472;2022-07-25T13:27:19;25.90;67.40
23715;DHT22;12036;50.858;4.472;2022-07-25T13:29:45;26.00;66.70
23715;DHT22;12036;50.858;4.472;2022-07-25T13:32:11;26.10;66.30
23715;DHT22;12036;50.858;4.472;2022-07-25T13:34:37;26.10;65.10
23715;DHT22;12036;50.858;4.472;2022-07-25T13:37:03;26.00;64.30
23715;DHT22;12036;50.858;4.472;2022-07-25T13:39:29;26.10;65.70
23715;DHT22;12036;50.858;4.472;2022-07-25T13:41:55;26.20;65.00
23715;DHT22;12036;50.858;4.472;2022-07-25T13:44:20;26.30;65.90
23715;DHT22;12036;50.858;4.472;2022-07-25T13:46:46;26.50;65.00
23715;DHT22;12036;50.858;4.472;2022-07-25T13:49:15;26.40;64.60
23715;DHT22;12036;50.858;4.472;2022-07-25T13:51:41;26.50;63.30
23715;DHT22;12036;50.858;4.472;2022-07-25T13:54:07;26.30;63.50
23715;DHT22;12036;50.858;4.472;2022-07-25T13:56:32;26.10;63.50
23715;DHT22;12036;50.858;4.472;2022-07-25T13:58:58;25.80;64.60
23715;DHT22;12036;50.858;4.472;2022-07-25T14:01:24;25.70;64.20
23715;DHT22;12036;50.858;4.472;2022-07-25T14:03:53;25.90;63.90
23715;DHT22;12036;50.858;4.472;2022-07-25T14:06:18;25.90;63.30
23715;DHT22;12036;50.858;4.472;2022-07-25T14:08:44;26.30;63.00
23715;DHT22;12036;50.858;4.472;2022-07-25T14:11:10;26.70;61.20
23715;DHT22;12036;50.858;4.472;2022-07-25T14:13:35;26.80;60.80
23715;DHT22;12036;50.858;4.472;2022-07-25T14:16:02;26.90;60.10
23715;DHT22;12036;50.858;4.472;2022-07-25T14:18:27;26.80;59.90
23715;DHT22;12036;50.858;4.472;2022-07-25T14:20:56;26.90;60.40
23715;DHT22;12036;50.858;4.472;2022-07-25T14:23:21;26.80;59.90
23715;DHT22;12036;50.858;4.472;2022-07-25T14:25:47;26.70;60.80
23715;DHT22;12036;50.858;4.472;2022-07-25T14:28:13;26.80;60.20
23715;DHT22;12036;50.858;4.472;2022-07-25T14:30:38;27.00;59.00
23715;DHT22;12036;50.858;4.472;2022-07-25T14:33:04;26.70;59.20
23715;DHT22;12036;50.858;4.472;2022-07-25T14:35:29;26.70;59.30
23715;DHT22;12036;50.858;4.472;2022-07-25T14:37:55;26.70;58.30
23715;DHT22;12036;50.858;4.472;2022-07-25T14:40:21;26.60;57.50
23715;DHT22;12036;50.858;4.472;2022-07-25T14:42:47;26.70;58.10
23715;DHT22;12036;50.858;4.472;2022-07-25T14:45:13;26.80;58.10
23715;DHT22;12036;50.858;4.472;2022-07-25T14:47:40;26.80;58.50
23715;DHT22;12036;50.858;4.472;2022-07-25T14:50:06;26.90;57.30
23715;DHT22;12036;50.858;4.472;2022-07-25T14:52:32;26.80;57.20
23715;DHT22;12036;50.858;4.472;2022-07-25T14:54:57;26.70;58.20
23715;DHT22;12036;50.858;4.472;2022-07-25T14:57:23;26.80;57.70
23715;DHT22;12036;50.858;4.472;2022-07-25T14:59:49;27.00;57.20
23715;DHT22;12036;50.858;4.472;2022-07-25T15:02:15;27.00;56.60
23715;DHT22;12036;50.858;4.472;2022-07-25T15:04:42;26.90;56.80
23715;DHT22;12036;50.858;4.472;2022-07-25T15:07:07;26.70;57.30
23715;DHT22;12036;50.858;4.472;2022-07-25T15:09:33;26.60;57.60
23715;DHT22;12036;50.858;4.472;2022-07-25T15:11:59;26.50;57.40
23715;DHT22;12036;50.858;4.472;2022-07-25T15:14:24;26.30;58.10
23715;DHT22;12036;50.858;4.472;2022-07-25T15:16:50;26.10;58.20
23715;DHT22;12036;50.858;4.472;2022-07-25T15:19:17;26.10;58.90
23715;DHT22;12036;50.858;4.472;2022-07-25T15:21:43;26.10;58.70
23715;DHT22;12036;50.858;4.472;2022-07-25T15:24:08;26.10;58.80
23715;DHT22;12036;50.858;4.472;2022-07-25T15:26:35;26.10;58.50
23715;DHT22;12036;50.858;4.472;2022-07-25T15:29:01;26.40;58.20
23715;DHT22;12036;50.858;4.472;2022-07-25T15:31:27;26.70;58.00
23715;DHT22;12036;50.858;4.472;2022-07-25T15:33:53;26.70;57.10
23715;DHT22;12036;50.858;4.472;2022-07-25T15:36:19;26.70;57.00
23715;DHT22;12036;50.858;4.472;2022-07-25T15:38:45;26.80;56.60
23715;DHT22;12036;50.858;4.472;2022-07-25T15:41:11;26.70;56.20